sensor_id;sensor_type;location;lat;lon;timestamp;pressure;altitude;pressure_sealevel;temperature;humidity
76128;BME280;64873;50.102;14.434;2023-03-03T00:00:11;99692.66;;;1.05;60.25
76128;BME280;64873;50.102;14.434;2023-03-03T00:02:37;99685.19;;;0.83;60.88
76128;BME280;64873;50.102;14.434;2023-03-03T00:05:02;99677.16;;;0.74;61.18
76128;BME280;64873;50.102;14.434;2023-03-03T00:07:28;99690.06;;;0.68;61.71
76128;BME280;64873;50.102;14.434;2023-03-03T00:09:53;99653.06;;;0.42;62.00
76128;BME280;64873;50.102;14.434;2023-03-03T00:12:27;99678.31;;;0.62;62.03
76128;BME280;64873;50.102;14.434;2023-03-03T00:14:53;99694.91;;;0.63;62.30
76128;BME280;64873;50.102;14.434;2023-03-03T00:17:22;99690.63;;;0.62;62.07
76128;BME280;64873;50.102;14.434;2023-03-03T00:19:49;99661.44;;;0.55;62.05
76128;BME280;64873;50.102;14.434;2023-03-03T00:22:27;99679.56;;;0.58;61.91
76128;BME280;64873;50.102;14.434;2023-03-03T00:24:57;99672.19;;;0.71;61.67
76128;BME280;64873;50.102;14.434;2023-03-03T00:27:33;99678.63;;;0.87;61.18
76128;BME280;64873;50.102;14.434;2023-03-03T00:29:59;99662.06;;;0.76;60.47
76128;BME280;64873;50.102;14.434;2023-03-03T00:37:43;99691.84;;;0.67;61.82
76128;BME280;64873;50.102;14.434;2023-03-03T00:40:39;99695.31;;;0.58;62.02
76128;BME280;64873;50.102;14.434;2023-03-03T00:43:17;99677.53;;;0.33;62.57
76128;BME280;64873;50.102;14.434;2023-03-03T00:45:46;99695.13;;;0.42;62.77
76128;BME280;64873;50.102;14.434;2023-03-03T00:48:24;99687.38;;;0.31;63.08
76128;BME280;64873;50.102;14.434;2023-03-03T00:50:52;99682.53;;;0.36;62.65
76128;BME280;64873;50.102;14.434;2023-03-03T00:53:19;99668.16;;;0.20;62.71
76128;BME280;64873;50.102;14.434;2023-03-03T00:55:47;99682.13;;;0.31;63.66
76128;BME280;64873;50.102;14.434;2023-03-03T00:58:12;99673.00;;;0.15;63.49
76128;BME280;64873;50.102;14.434;2023-03-03T01:00:39;99653.38;;;0.19;63.46
76128;BME280;64873;50.102;14.434;2023-03-03T01:03:07;99664.97;;;0.26;62.85
76128;BME280;64873;50.102;14.434;2023-03-03T01:05:33;99680.22;;;0.70;61.48
76128;BME280;64873;50.102;14.434;2023-03-03T01:07:59;99653.41;;;0.57;61.84
76128;BME280;64873;50.102;14.434;2023-03-03T01:10:26;99661.84;;;0.60;61.25
76128;BME280;64873;50.102;14.434;2023-03-03T01:12:53;99663.78;;;0.58;61.30
76128;BME280;64873;50.102;14.434;2023-03-03T01:15:19;99649.75;;;0.30;62.65
76128;BME280;64873;50.102;14.434;2023-03-03T01:17:44;99660.53;;;0.37;62.76
76128;BME280;64873;50.102;14.434;2023-03-03T01:20:13;99662.28;;;0.46;62.59
76128;BME280;64873;50.102;14.434;2023-03-03T01:22:39;99668.00;;;0.32;62.60
76128;BME280;64873;50.102;14.434;2023-03-03T01:25:04;99654.00;;;0.41;62.23
76128;BME280;64873;50.102;14.434;2023-03-03T01:30:51;99660.53;;;0.17;63.69
76128;BME280;64873;50.102;14.434;2023-03-03T01:33:16;99648.41;;;0.07;64.18
76128;BME280;64873;50.102;14.434;2023-03-03T01:35:46;99662.22;;;0.09;63.74
76128;BME280;64873;50.102;14.434;2023-03-03T01:38:13;99665.22;;;0.23;64.00
76128;BME280;64873;50.102;14.434;2023-03-03T01:40:39;99660.84;;;0.24;64.39
76128;BME280;64873;50.102;14.434;2023-03-03T01:43:05;99660.81;;;0.34;63.58
76128;BME280;64873;50.102;14.434;2023-03-03T01:53:49;99657.25;;;0.15;64.22
76128;BME280;64873;50.102;14.434;2023-03-03T01:56:15;99646.19;;;0.02;64.48
76128;BME280;64873;50.102;14.434;2023-03-03T02:01:44;99642.34;;;-0.23;65.82
76128;BME280;64873;50.102;14.434;2023-03-03T02:04:11;99625.22;;;-0.17;65.53
76128;BME280;64873;50.102;14.434;2023-03-03T02:06:40;99652.28;;;-0.07;65.78
76128;BME280;64873;50.102;14.434;2023-03-03T02:12:00;99654.25;;;-0.29;67.95
76128;BME280;64873;50.102;14.434;2023-03-03T02:14:27;99648.84;;;-0.37;67.34
76128;BME280;64873;50.102;14.434;2023-03-03T02:16:53;99634.59;;;-0.24;67.13
76128;BME280;64873;50.102;14.434;2023-03-03T02:20:00;99643.72;;;-0.19;67.27
76128;BME280;64873;50.102;14.434;2023-03-03T02:22:36;99640.69;;;-0.14;66.86
76128;BME280;64873;50.102;14.434;2023-03-03T02:25:07;99629.91;;;-0.31;67.83
76128;BME280;64873;50.102;14.434;2023-03-03T02:27:35;99640.41;;;-0.21;68.95
76128;BME280;64873;50.102;14.434;2023-03-03T02:30:18;99639.59;;;-0.21;68.91
76128;BME280;64873;50.102;14.434;2023-03-03T02:32:43;99612.78;;;-0.44;68.72
76128;BME280;64873;50.102;14.434;2023-03-03T02:35:34;99651.75;;;-0.40;68.79
76128;BME280;64873;50.102;14.434;2023-03-03T02:38:14;99648.97;;;-0.19;68.04
76128;BME280;64873;50.102;14.434;2023-03-03T02:40:48;99646.50;;;-0.40;67.61
76128;BME280;64873;50.102;14.434;2023-03-03T02:43:18;99642.06;;;-0.59;68.33
76128;BME280;64873;50.102;14.434;2023-03-03T02:45:44;99642.03;;;-0.68;69.13
76128;BME280;64873;50.102;14.434;2023-03-03T02:48:10;99625.72;;;-0.82;69.56
76128;BME280;64873;50.102;14.434;2023-03-03T02:50:36;99635.91;;;-0.98;69.83
76128;BME280;64873;50.102;14.434;2023-03-03T02:53:01;99660.38;;;-0.88;70.68
76128;BME280;64873;50.102;14.434;2023-03-03T02:55:27;99643.38;;;-0.84;70.99
76128;BME280;64873;50.102;14.434;2023-03-03T02:57:52;99636.50;;;-0.65;70.10
76128;BME280;64873;50.102;14.434;2023-03-03T03:00:17;99653.66;;;-0.61;70.67
76128;BME280;64873;50.102;14.434;2023-03-03T03:02:43;99671.09;;;-0.31;68.86
76128;BME280;64873;50.102;14.434;2023-03-03T03:05:08;99660.16;;;-0.46;68.86
76128;BME280;64873;50.102;14.434;2023-03-03T03:07:34;99652.56;;;-0.49;68.75
76128;BME280;64873;50.102;14.434;2023-03-03T03:09:59;99664.72;;;-0.48;69.67
76128;BME280;64873;50.102;14.434;2023-03-03T03:12:25;99665.41;;;-0.46;68.96
76128;BME280;64873;50.102;14.434;2023-03-03T03:14:50;99650.75;;;-0.58;70.45
76128;BME280;64873;50.102;14.434;2023-03-03T03:17:15;99648.13;;;-0.58;69.98
76128;BME280;64873;50.102;14.434;2023-03-03T03:19:41;99646.06;;;-0.64;70.63
76128;BME280;64873;50.102;14.434;2023-03-03T03:22:06;99637.47;;;-0.66;70.46
76128;BME280;64873;50.102;14.434;2023-03-03T03:24:32;99645.22;;;-0.55;69.88
76128;BME280;64873;50.102;14.434;2023-03-03T03:26:57;99657.81;;;-0.49;70.56
76128;BME280;64873;50.102;14.434;2023-03-03T03:29:23;99633.88;;;-0.65;70.76
76128;BME280;64873;50.102;14.434;2023-03-03T03:31:48;99657.25;;;-0.62;71.19
76128;BME280;64873;50.102;14.434;2023-03-03T03:34:14;99637.63;;;-0.68;70.54
76128;BME280;64873;50.102;14.434;2023-03-03T03:36:39;99633.19;;;-0.67;70.44
76128;BME280;64873;50.102;14.434;2023-03-03T03:39:05;99652.25;;;-0.65;70.54
76128;BME280;64873;50.102;14.434;2023-03-03T03:41:31;99647.00;;;-0.65;70.69
76128;BME280;64873;50.102;14.434;2023-03-03T03:43:56;99645.34;;;-0.66;70.14
76128;BME280;64873;50.102;14.434;2023-03-03T03:46:22;99645.06;;;-0.73;70.41
76128;BME280;64873;50.102;14.434;2023-03-03T03:48:47;99643.97;;;-0.70;70.62
76128;BME280;64873;50.102;14.434;2023-03-03T03:51:13;99641.88;;;-0.76;70.11
76128;BME280;64873;50.102;14.434;2023-03-03T03:53:38;99637.44;;;-0.86;70.94
76128;BME280;64873;50.102;14.434;2023-03-03T03:56:04;99633.75;;;-0.73;71.08
76128;BME280;64873;50.102;14.434;2023-03-03T03:58:30;99638.72;;;-0.70;70.70
76128;BME280;64873;50.102;14.434;2023-03-03T04:01:01;99633.88;;;-0.75;70.56
76128;BME280;64873;50.102;14.434;2023-03-03T04:03:27;99603.59;;;-0.98;70.28
76128;BME280;64873;50.102;14.434;2023-03-03T04:05:52;99621.41;;;-0.83;71.01
76128;BME280;64873;50.102;14.434;2023-03-03T04:08:19;99649.22;;;-0.70;70.80
76128;BME280;64873;50.102;14.434;2023-03-03T04:10:44;99654.91;;;-0.56;70.17
76128;BME280;64873;50.102;14.434;2023-03-03T04:13:10;99668.63;;;-0.92;70.50
76128;BME280;64873;50.102;14.434;2023-03-03T04:15:35;99667.13;;;-1.25;71.40
76128;BME280;64873;50.102;14.434;2023-03-03T04:18:02;99666.91;;;-1.43;72.45
76128;BME280;64873;50.102;14.434;2023-03-03T04:20:27;99659.13;;;-1.54;72.75
76128;BME280;64873;50.102;14.434;2023-03-03T04:22:53;99670.03;;;-1.49;73.17
76128;BME280;64873;50.102;14.434;2023-03-03T04:25:19;99652.63;;;-1.60;73.71
76128;BME280;64873;50.102;14.434;2023-03-03T04:27:44;99653.41;;;-1.39;72.99
76128;BME280;64873;50.102;14.434;2023-03-03T04:30:11;99673.25;;;-1.15;73.85
76128;BME280;64873;50.102;14.434;2023-03-03T04:32:37;99662.91;;;-1.07;72.74
76128;BME280;64873;50.102;14.434;2023-03-03T04:35:02;99662.66;;;-1.04;71.90
76128;BME280;64873;50.102;14.434;2023-03-03T04:37:28;99679.53;;;-0.97;72.33
76128;BME280;64873;50.102;14.434;2023-03-03T04:39:53;99662.66;;;-1.04;72.05
76128;BME280;64873;50.102;14.434;2023-03-03T04:42:19;99672.78;;;-0.90;71.02
76128;BME280;64873;50.102;14.434;2023-03-03T04:44:44;99670.16;;;-0.90;70.75
76128;BME280;64873;50.102;14.434;2023-03-03T04:47:10;99679.31;;;-0.74;69.82
76128;BME280;64873;50.102;14.434;2023-03-03T04:49:35;99682.38;;;-0.69;70.12
76128;BME280;64873;50.102;14.434;2023-03-03T04:52:01;99663.53;;;-0.94;69.78
76128;BME280;64873;50.102;14.434;2023-03-03T04:54:26;99669.72;;;-0.95;69.40
76128;BME280;64873;50.102;14.434;2023-03-03T04:56:52;99678.25;;;-1.02;69.03
76128;BME280;64873;50.102;14.434;2023-03-03T04:59:17;99653.78;;;-1.13;68.16
76128;BME280;64873;50.102;14.434;2023-03-03T05:01:43;99671.59;;;-1.16;69.17
76128;BME280;64873;50.102;14.434;2023-03-03T05:04:10;99673.41;;;-1.07;68.34
76128;BME280;64873;50.102;14.434;2023-03-03T05:06:36;99666.84;;;-0.92;67.19
76128;BME280;64873;50.102;14.434;2023-03-03T05:09:01;99658.56;;;-0.87;67.45
76128;BME280;64873;50.102;14.434;2023-03-03T05:11:26;99663.22;;;-1.00;67.15
76128;BME280;64873;50.102;14.434;2023-03-03T05:13:52;99663.78;;;-0.97;67.00
76128;BME280;64873;50.102;14.434;2023-03-03T05:16:17;99651.34;;;-0.95;67.52
76128;BME280;64873;50.102;14.434;2023-03-03T05:18:43;99664.72;;;-1.08;67.24
76128;BME280;64873;50.102;14.434;2023-03-03T05:21:10;99657.06;;;-1.20;67.49
76128;BME280;64873;50.102;14.434;2023-03-03T05:23:35;99656.13;;;-1.19;67.83
76128;BME280;64873;50.102;14.434;2023-03-03T05:26:01;99650.63;;;-1.16;67.57
76128;BME280;64873;50.102;14.434;2023-03-03T05:28:26;99695.78;;;-1.03;66.99
76128;BME280;64873;50.102;14.434;2023-03-03T05:30:52;99683.66;;;-1.04;67.37
76128;BME280;64873;50.102;14.434;2023-03-03T05:33:17;99674.31;;;-1.18;67.41
76128;BME280;64873;50.102;14.434;2023-03-03T05:35:43;99670.63;;;-1.15;67.99
76128;BME280;64873;50.102;14.434;2023-03-03T05:38:09;99698.72;;;-0.96;67.55
76128;BME280;64873;50.102;14.434;2023-03-03T05:40:34;99698.84;;;-0.98;67.79
76128;BME280;64873;50.102;14.434;2023-03-03T05:43:00;99705.44;;;-1.03;68.07
76128;BME280;64873;50.102;14.434;2023-03-03T05:45:26;99705.34;;;-0.92;67.76
76128;BME280;64873;50.102;14.434;2023-03-03T05:47:52;99708.81;;;-0.92;67.97
76128;BME280;64873;50.102;14.434;2023-03-03T05:50:19;99712.94;;;-0.99;67.84
76128;BME280;64873;50.102;14.434;2023-03-03T05:52:49;99716.50;;;-1.00;68.55
76128;BME280;64873;50.102;14.434;2023-03-03T05:55:15;99715.47;;;-0.88;68.45
76128;BME280;64873;50.102;14.434;2023-03-03T05:57:41;99716.59;;;-0.81;68.96
76128;BME280;64873;50.102;14.434;2023-03-03T06:00:07;99722.81;;;-0.82;68.55
76128;BME280;64873;50.102;14.434;2023-03-03T06:02:33;99733.94;;;-0.89;68.68
76128;BME280;64873;50.102;14.434;2023-03-03T06:04:58;99719.00;;;-0.98;68.90
76128;BME280;64873;50.102;14.434;2023-03-03T06:07:24;99723.66;;;-1.02;69.31
76128;BME280;64873;50.102;14.434;2023-03-03T06:09:49;99735.72;;;-0.99;69.09
76128;BME280;64873;50.102;14.434;2023-03-03T06:12:15;99733.09;;;-0.99;69.18
76128;BME280;64873;50.102;14.434;2023-03-03T06:14:41;99748.03;;;-0.90;70.13
76128;BME280;64873;50.102;14.434;2023-03-03T06:17:06;99754.63;;;-0.96;70.39
76128;BME280;64873;50.102;14.434;2023-03-03T06:19:32;99766.28;;;-0.79;70.75
76128;BME280;64873;50.102;14.434;2023-03-03T06:21:57;99728.69;;;-1.20;71.01
76128;BME280;64873;50.102;14.434;2023-03-03T06:24:23;99749.72;;;-1.10;70.75
76128;BME280;64873;50.102;14.434;2023-03-03T06:26:51;99772.91;;;-0.85;70.48
76128;BME280;64873;50.102;14.434;2023-03-03T06:29:16;99784.31;;;-0.95;70.89
76128;BME280;64873;50.102;14.434;2023-03-03T06:31:42;99788.03;;;-0.98;70.51
76128;BME280;64873;50.102;14.434;2023-03-03T06:34:08;99790.28;;;-1.14;72.11
76128;BME280;64873;50.102;14.434;2023-03-03T06:36:34;99807.16;;;-1.07;72.43
76128;BME280;64873;50.102;14.434;2023-03-03T06:38:59;99809.53;;;-1.04;72.34
76128;BME280;64873;50.102;14.434;2023-03-03T06:41:25;99816.50;;;-0.93;71.87
76128;BME280;64873;50.102;14.434;2023-03-03T06:43:50;99814.38;;;-1.20;72.49
76128;BME280;64873;50.102;14.434;2023-03-03T06:46:16;99787.03;;;-1.27;72.79
76128;BME280;64873;50.102;14.434;2023-03-03T06:48:42;99832.16;;;-1.03;73.69
76128;BME280;64873;50.102;14.434;2023-03-03T06:51:37;99826.16;;;-0.94;74.30
76128;BME280;64873;50.102;14.434;2023-03-03T06:54:17;99831.31;;;-0.83;73.63
76128;BME280;64873;50.102;14.434;2023-03-03T06:56:44;99829.44;;;-0.71;73.74
76128;BME280;64873;50.102;14.434;2023-03-03T06:59:21;99826.41;;;-0.66;74.11
76128;BME280;64873;50.102;14.434;2023-03-03T07:01:48;99826.09;;;-0.52;74.83
76128;BME280;64873;50.102;14.434;2023-03-03T07:04:28;99824.06;;;-0.39;74.77
76128;BME280;64873;50.102;14.434;2023-03-03T07:06:58;99831.63;;;-0.36;74.90
76128;BME280;64873;50.102;14.434;2023-03-03T07:09:27;99807.72;;;-0.42;75.55
76128;BME280;64873;50.102;14.434;2023-03-03T07:11:56;99822.81;;;-0.35;75.69
76128;BME280;64873;50.102;14.434;2023-03-03T07:14:24;99824.91;;;-0.29;74.62
76128;BME280;64873;50.102;14.434;2023-03-03T07:17:00;99839.00;;;-0.30;75.13
76128;BME280;64873;50.102;14.434;2023-03-03T07:19:33;99820.31;;;-0.46;75.89
76128;BME280;64873;50.102;14.434;2023-03-03T07:22:22;99833.41;;;-0.46;76.63
76128;BME280;64873;50.102;14.434;2023-03-03T07:24:58;99832.72;;;-0.48;76.20
76128;BME280;64873;50.102;14.434;2023-03-03T07:27:28;99831.34;;;-0.52;77.44
76128;BME280;64873;50.102;14.434;2023-03-03T07:30:15;99817.94;;;-0.79;76.86
76128;BME280;64873;50.102;14.434;2023-03-03T07:32:44;99824.84;;;-0.78;76.97
76128;BME280;64873;50.102;14.434;2023-03-03T07:35:38;99840.88;;;-0.51;77.22
76128;BME280;64873;50.102;14.434;2023-03-03T07:38:27;99841.91;;;-0.33;76.97
76128;BME280;64873;50.102;14.434;2023-03-03T07:40:56;99829.16;;;-0.47;77.18
76128;BME280;64873;50.102;14.434;2023-03-03T07:43:34;99839.41;;;-0.34;77.95
76128;BME280;64873;50.102;14.434;2023-03-03T07:46:47;99833.72;;;-0.30;77.55
76128;BME280;64873;50.102;14.434;2023-03-03T07:48:47;99839.75;;;-0.08;77.63
76128;BME280;64873;50.102;14.434;2023-03-03T07:51:31;99834.78;;;-0.11;76.95
76128;BME280;64873;50.102;14.434;2023-03-03T07:54:29;99831.06;;;0.01;76.67
76128;BME280;64873;50.102;14.434;2023-03-03T07:59:34;99828.81;;;-0.13;77.89
76128;BME280;64873;50.102;14.434;2023-03-03T08:02:01;99817.06;;;-0.09;76.53
76128;BME280;64873;50.102;14.434;2023-03-03T08:04:49;99843.94;;;0.23;76.37
76128;BME280;64873;50.102;14.434;2023-03-03T08:07:18;99844.38;;;0.29;75.46
76128;BME280;64873;50.102;14.434;2023-03-03T08:10:00;99841.19;;;0.25;76.27
76128;BME280;64873;50.102;14.434;2023-03-03T08:15:24;99837.88;;;0.33;76.00
76128;BME280;64873;50.102;14.434;2023-03-03T08:17:53;99819.19;;;0.26;75.32
76128;BME280;64873;50.102;14.434;2023-03-03T08:20:45;99833.19;;;0.56;75.65
76128;BME280;64873;50.102;14.434;2023-03-03T08:23:12;99817.13;;;0.59;74.14
76128;BME280;64873;50.102;14.434;2023-03-03T08:25:38;99829.44;;;0.68;74.99
76128;BME280;64873;50.102;14.434;2023-03-03T08:28:04;99842.81;;;0.94;73.15
76128;BME280;64873;50.102;14.434;2023-03-03T08:30:29;99842.56;;;0.97;72.95
76128;BME280;64873;50.102;14.434;2023-03-03T08:32:56;99840.34;;;1.02;72.85
76128;BME280;64873;50.102;14.434;2023-03-03T08:35:21;99835.09;;;0.92;73.26
76128;BME280;64873;50.102;14.434;2023-03-03T08:37:47;99844.50;;;0.95;73.52
76128;BME280;64873;50.102;14.434;2023-03-03T08:40:12;99849.47;;;1.08;72.87
76128;BME280;64873;50.102;14.434;2023-03-03T08:42:38;99864.94;;;1.20;72.25
76128;BME280;64873;50.102;14.434;2023-03-03T08:45:04;99859.63;;;1.40;71.22
76128;BME280;64873;50.102;14.434;2023-03-03T08:47:29;99854.81;;;1.35;70.81
76128;BME280;64873;50.102;14.434;2023-03-03T08:49:54;99867.25;;;1.43;71.20
76128;BME280;64873;50.102;14.434;2023-03-03T08:52:20;99862.09;;;1.51;70.81
76128;BME280;64873;50.102;14.434;2023-03-03T08:54:45;99871.09;;;1.85;69.87
76128;BME280;64873;50.102;14.434;2023-03-03T08:57:11;99871.00;;;2.05;69.27
76128;BME280;64873;50.102;14.434;2023-03-03T08:59:36;99851.78;;;1.67;69.72
76128;BME280;64873;50.102;14.434;2023-03-03T09:02:04;99861.44;;;1.76;70.26
76128;BME280;64873;50.102;14.434;2023-03-03T09:04:30;99855.66;;;1.63;70.86
76128;BME280;64873;50.102;14.434;2023-03-03T09:06:55;99859.41;;;1.70;70.74
76128;BME280;64873;50.102;14.434;2023-03-03T09:09:21;99817.31;;;1.51;70.59
76128;BME280;64873;50.102;14.434;2023-03-03T09:11:46;99821.09;;;1.39;70.22
76128;BME280;64873;50.102;14.434;2023-03-03T09:14:12;99848.91;;;1.51;71.10
76128;BME280;64873;50.102;14.434;2023-03-03T09:16:49;99840.53;;;1.28;71.71
76128;BME280;64873;50.102;14.434;2023-03-03T09:19:26;99834.56;;;1.36;71.36
76128;BME280;64873;50.102;14.434;2023-03-03T09:21:56;99857.88;;;1.68;71.04
76128;BME280;64873;50.102;14.434;2023-03-03T09:24:28;99855.94;;;2.15;69.65
76128;BME280;64873;50.102;14.434;2023-03-03T09:26:55;99850.03;;;2.31;68.72
76128;BME280;64873;50.102;14.434;2023-03-03T09:29:29;99842.13;;;2.31;68.26
76128;BME280;64873;50.102;14.434;2023-03-03T09:31:57;99845.13;;;2.18;68.72
76128;BME280;64873;50.102;14.434;2023-03-03T09:34:38;99838.25;;;2.07;68.98
76128;BME280;64873;50.102;14.434;2023-03-03T09:37:23;99851.44;;;2.07;69.47
76128;BME280;64873;50.102;14.434;2023-03-03T09:39:53;99821.59;;;2.07;69.14
76128;BME280;64873;50.102;14.434;2023-03-03T09:42:28;99840.97;;;2.16;69.12
76128;BME280;64873;50.102;14.434;2023-03-03T09:45:12;99830.03;;;2.28;68.47
76128;BME280;64873;50.102;14.434;2023-03-03T09:50:39;99844.22;;;2.45;68.10
76128;BME280;64873;50.102;14.434;2023-03-03T09:54:02;99848.00;;;2.43;68.24
76128;BME280;64873;50.102;14.434;2023-03-03T09:56:08;99841.75;;;2.61;67.69
76128;BME280;64873;50.102;14.434;2023-03-03T09:59:02;99846.06;;;3.06;66.53
76128;BME280;64873;50.102;14.434;2023-03-03T10:05:11;99852.38;;;3.13;66.03
76128;BME280;64873;50.102;14.434;2023-03-03T10:10:37;99853.72;;;3.43;65.00
76128;BME280;64873;50.102;14.434;2023-03-03T10:13:43;99856.63;;;3.06;66.04
76128;BME280;64873;50.102;14.434;2023-03-03T10:19:09;99839.50;;;2.92;66.25
76128;BME280;64873;50.102;14.434;2023-03-03T10:21:50;99842.66;;;3.14;66.09
76128;BME280;64873;50.102;14.434;2023-03-03T10:27:09;99844.38;;;3.23;65.32
76128;BME280;64873;50.102;14.434;2023-03-03T10:29:45;99849.06;;;3.37;65.26
76128;BME280;64873;50.102;14.434;2023-03-03T10:37:47;99849.69;;;3.31;64.52
76128;BME280;64873;50.102;14.434;2023-03-03T10:40:29;99844.69;;;3.28;64.96
76128;BME280;64873;50.102;14.434;2023-03-03T10:45:50;99839.03;;;3.41;64.51
76128;BME280;64873;50.102;14.434;2023-03-03T10:57:18;99843.63;;;3.73;63.59
76128;BME280;64873;50.102;14.434;2023-03-03T11:05:31;99845.25;;;3.66;62.80
76128;BME280;64873;50.102;14.434;2023-03-03T11:08:16;99843.78;;;3.71;62.79
76128;BME280;64873;50.102;14.434;2023-03-03T11:10:47;99838.19;;;3.74;62.13
76128;BME280;64873;50.102;14.434;2023-03-03T11:13:47;99834.78;;;3.90;62.11
76128;BME280;64873;50.102;14.434;2023-03-03T11:21:40;99837.59;;;3.89;60.96
76128;BME280;64873;50.102;14.434;2023-03-03T11:33:06;99791.88;;;4.13;60.57
76128;BME280;64873;50.102;14.434;2023-03-03T11:35:45;99790.56;;;4.17;60.44
76128;BME280;64873;50.102;14.434;2023-03-03T11:41:00;99813.06;;;4.29;60.10
76128;BME280;64873;50.102;14.434;2023-03-03T11:43:49;99808.25;;;4.33;59.77
76128;BME280;64873;50.102;14.434;2023-03-03T11:46:21;99813.72;;;4.39;59.37
76128;BME280;64873;50.102;14.434;2023-03-03T11:48:57;99798.88;;;4.46;59.32
76128;BME280;64873;50.102;14.434;2023-03-03T11:56:45;99807.97;;;4.68;60.06
76128;BME280;64873;50.102;14.434;2023-03-03T12:02:04;99784.13;;;4.44;60.83
76128;BME280;64873;50.102;14.434;2023-03-03T12:04:39;99778.66;;;4.45;60.49
76128;BME280;64873;50.102;14.434;2023-03-03T12:10:17;99796.22;;;4.54;60.29
76128;BME280;64873;50.102;14.434;2023-03-03T12:13:04;99795.53;;;4.44;60.62
76128;BME280;64873;50.102;14.434;2023-03-03T12:15:46;99797.53;;;4.42;61.19
76128;BME280;64873;50.102;14.434;2023-03-03T12:32:13;99773.56;;;4.44;60.30
76128;BME280;64873;50.102;14.434;2023-03-03T12:34:56;99775.03;;;4.63;59.79
76128;BME280;64873;50.102;14.434;2023-03-03T12:40:18;99780.34;;;4.71;58.47
76128;BME280;64873;50.102;14.434;2023-03-03T12:45:48;99788.09;;;4.56;57.85
76128;BME280;64873;50.102;14.434;2023-03-03T12:48:26;99767.13;;;4.46;57.47
76128;BME280;64873;50.102;14.434;2023-03-03T12:56:43;99753.19;;;4.44;55.73
76128;BME280;64873;50.102;14.434;2023-03-03T12:59:48;99778.03;;;4.51;54.96
76128;BME280;64873;50.102;14.434;2023-03-03T13:05:21;99777.03;;;4.52;54.72
76128;BME280;64873;50.102;14.434;2023-03-03T13:10:44;99767.28;;;4.53;54.72
76128;BME280;64873;50.102;14.434;2023-03-03T13:13:19;99752.22;;;4.53;54.23
76128;BME280;64873;50.102;14.434;2023-03-03T13:16:03;99766.41;;;4.69;53.82
76128;BME280;64873;50.102;14.434;2023-03-03T13:18:47;99767.28;;;4.69;53.86
76128;BME280;64873;50.102;14.434;2023-03-03T13:21:25;99756.50;;;4.79;54.42
76128;BME280;64873;50.102;14.434;2023-03-03T13:24:06;99758.47;;;4.93;54.11
76128;BME280;64873;50.102;14.434;2023-03-03T13:26:43;99762.13;;;4.76;54.78
76128;BME280;64873;50.102;14.434;2023-03-03T13:29:22;99757.00;;;4.74;54.13
76128;BME280;64873;50.102;14.434;2023-03-03T13:32:00;99751.19;;;4.79;54.59
76128;BME280;64873;50.102;14.434;2023-03-03T13:36:57;99758.63;;;5.00;54.30
76128;BME280;64873;50.102;14.434;2023-03-03T13:39:28;99739.25;;;4.91;54.03
76128;BME280;64873;50.102;14.434;2023-03-03T13:42:44;99736.34;;;4.70;54.55
76128;BME280;64873;50.102;14.434;2023-03-03T13:44:49;99750.72;;;4.67;55.08
76128;BME280;64873;50.102;14.434;2023-03-03T13:50:31;99749.53;;;4.94;54.47
76128;BME280;64873;50.102;14.434;2023-03-03T14:06:57;99734.16;;;4.81;54.39
76128;BME280;64873;50.102;14.434;2023-03-03T14:12:08;99732.50;;;4.80;54.91
76128;BME280;64873;50.102;14.434;2023-03-03T14:14:46;99730.03;;;4.79;55.25
76128;BME280;64873;50.102;14.434;2023-03-03T14:17:38;99727.03;;;4.74;55.69
76128;BME280;64873;50.102;14.434;2023-03-03T14:20:28;99732.03;;;4.77;55.90
76128;BME280;64873;50.102;14.434;2023-03-03T14:23:00;99738.81;;;4.71;56.22
76128;BME280;64873;50.102;14.434;2023-03-03T14:25:57;99737.00;;;4.64;56.59
76128;BME280;64873;50.102;14.434;2023-03-03T14:28:26;99739.94;;;4.69;56.82
76128;BME280;64873;50.102;14.434;2023-03-03T14:30:55;99712.50;;;4.62;57.25
76128;BME280;64873;50.102;14.434;2023-03-03T14:33:25;99731.03;;;4.78;57.25
76128;BME280;64873;50.102;14.434;2023-03-03T14:38:35;99736.00;;;4.73;58.15
76128;BME280;64873;50.102;14.434;2023-03-03T14:43:38;99731.38;;;4.42;59.21
76128;BME280;64873;50.102;14.434;2023-03-03T14:48:53;99725.59;;;4.31;59.69
76128;BME280;64873;50.102;14.434;2023-03-03T14:51:41;99747.28;;;4.34;60.15
76128;BME280;64873;50.102;14.434;2023-03-03T14:54:20;99723.63;;;4.16;59.80
76128;BME280;64873;50.102;14.434;2023-03-03T14:59:33;99727.06;;;4.00;59.88
76128;BME280;64873;50.102;14.434;2023-03-03T15:04:46;99730.88;;;4.14;60.02
76128;BME280;64873;50.102;14.434;2023-03-03T15:09:50;99728.25;;;4.22;59.72
76128;BME280;64873;50.102;14.434;2023-03-03T15:12:37;99728.88;;;4.00;59.82
76128;BME280;64873;50.102;14.434;2023-03-03T15:17:35;99710.81;;;3.79;59.38
76128;BME280;64873;50.102;14.434;2023-03-03T15:34:35;99711.75;;;3.54;60.70
76128;BME280;64873;50.102;14.434;2023-03-03T15:37:19;99717.53;;;3.57;60.63
76128;BME280;64873;50.102;14.434;2023-03-03T15:40:20;99722.00;;;3.57;60.88
76128;BME280;64873;50.102;14.434;2023-03-03T15:56:51;99718.97;;;3.35;60.72
76128;BME280;64873;50.102;14.434;2023-03-03T16:02:19;99712.66;;;3.28;61.77
76128;BME280;64873;50.102;14.434;2023-03-03T16:05:01;99711.63;;;3.21;61.37
76128;BME280;64873;50.102;14.434;2023-03-03T16:10:31;99714.44;;;3.19;61.97
76128;BME280;64873;50.102;14.434;2023-03-03T16:16:01;99720.88;;;3.17;61.59
76128;BME280;64873;50.102;14.434;2023-03-03T16:21:17;99732.91;;;3.11;62.64
76128;BME280;64873;50.102;14.434;2023-03-03T16:23:48;99722.97;;;3.05;62.37
76128;BME280;64873;50.102;14.434;2023-03-03T16:26:50;99720.00;;;3.08;62.38
76128;BME280;64873;50.102;14.434;2023-03-03T16:34:59;99746.91;;;2.86;62.14
76128;BME280;64873;50.102;14.434;2023-03-03T16:38:07;99753.66;;;2.80;62.54
76128;BME280;64873;50.102;14.434;2023-03-03T16:40:39;99739.00;;;2.60;63.02
76128;BME280;64873;50.102;14.434;2023-03-03T16:45:43;99737.38;;;2.41;65.93
76128;BME280;64873;50.102;14.434;2023-03-03T16:51:16;99768.06;;;2.24;67.31
76128;BME280;64873;50.102;14.434;2023-03-03T16:59:28;99789.88;;;1.99;68.41